sensor_id;sensor_type;location;lat;lon;timestamp;temperature;humidity
59977;DHT22;45837;51.076;3.578;2022-12-10T00:01:23;18.40;53.60
59977;DHT22;45837;51.076;3.578;2022-12-10T00:03:49;18.40;53.70
59977;DHT22;45837;51.076;3.578;2022-12-10T00:06:23;18.40;53.70
59977;DHT22;45837;51.076;3.578;2022-12-10T00:08:49;18.40;53.60
59977;DHT22;45837;51.076;3.578;2022-12-10T00:11:17;18.40;53.70
59977;DHT22;45837;51.076;3.578;2022-12-10T00:13:44;18.30;53.60
59977;DHT22;45837;51.076;3.578;2022-12-10T00:16:12;18.30;53.60
59977;DHT22;45837;51.076;3.578;2022-12-10T00:18:39;18.30;53.60
59977;DHT22;45837;51.076;3.578;2022-12-10T00:21:11;18.30;53.70
59977;DHT22;45837;51.076;3.578;2022-12-10T00:23:38;18.30;53.60
59977;DHT22;45837;51.076;3.578;2022-12-10T00:26:18;18.30;53.60
59977;DHT22;45837;51.076;3.578;2022-12-10T00:28:45;18.30;53.70
59977;DHT22;45837;51.076;3.578;2022-12-10T00:31:20;18.20;53.60
59977;DHT22;45837;51.076;3.578;2022-12-10T00:33:47;18.20;53.60
59977;DHT22;45837;51.076;3.578;2022-12-10T00:36:20;18.20;53.60
59977;DHT22;45837;51.076;3.578;2022-12-10T00:38:47;18.20;53.60
59977;DHT22;45837;51.076;3.578;2022-12-10T00:41:14;18.20;53.60
59977;DHT22;45837;51.076;3.578;2022-12-10T00:43:40;18.20;53.70
59977;DHT22;45837;51.076;3.578;2022-12-10T00:46:07;18.10;53.60
59977;DHT22;45837;51.076;3.578;2022-12-10T00:48:33;18.20;53.70
59977;DHT22;45837;51.076;3.578;2022-12-10T00:51:12;18.10;53.70
59977;DHT22;45837;51.076;3.578;2022-12-10T00:53:39;18.10;53.60
59977;DHT22;45837;51.076;3.578;2022-12-10T00:56:07;18.10;53.70
59977;DHT22;45837;51.076;3.578;2022-12-10T00:58:36;18.10;53.70
59977;DHT22;45837;51.076;3.578;2022-12-10T01:01:20;18.10;53.70
59977;DHT22;45837;51.076;3.578;2022-12-10T01:03:47;18.10;53.70
59977;DHT22;45837;51.076;3.578;2022-12-10T01:06:17;18.00;53.80
59977;DHT22;45837;51.076;3.578;2022-12-10T01:08:44;18.00;53.80
59977;DHT22;45837;51.076;3.578;2022-12-10T01:11:12;18.00;53.70
59977;DHT22;45837;51.076;3.578;2022-12-10T01:13:39;18.00;53.70
59977;DHT22;45837;51.076;3.578;2022-12-10T01:16:06;18.00;53.70
59977;DHT22;45837;51.076;3.578;2022-12-10T01:18:33;18.00;53.80
59977;DHT22;45837;51.076;3.578;2022-12-10T01:21:18;18.00;53.70
59977;DHT22;45837;51.076;3.578;2022-12-10T01:23:46;18.00;53.80
59977;DHT22;45837;51.076;3.578;2022-12-10T01:26:15;17.90;53.70
59977;DHT22;45837;51.076;3.578;2022-12-10T01:28:42;17.90;53.80
59977;DHT22;45837;51.076;3.578;2022-12-10T01:31:11;17.90;53.80
59977;DHT22;45837;51.076;3.578;2022-12-10T01:33:37;17.90;53.80
59977;DHT22;45837;51.076;3.578;2022-12-10T01:36:08;17.90;53.80
59977;DHT22;45837;51.076;3.578;2022-12-10T01:38:35;17.90;53.80
59977;DHT22;45837;51.076;3.578;2022-12-10T01:41:04;17.90;53.80
59977;DHT22;45837;51.076;3.578;2022-12-10T01:43:59;17.80;53.80
59977;DHT22;45837;51.076;3.578;2022-12-10T01:46:28;17.90;53.80
59977;DHT22;45837;51.076;3.578;2022-12-10T01:48:56;17.80;53.80
59977;DHT22;45837;51.076;3.578;2022-12-10T01:51:25;17.80;53.80
59977;DHT22;45837;51.076;3.578;2022-12-10T01:53:51;17.80;53.80
59977;DHT22;45837;51.076;3.578;2022-12-10T01:56:19;17.80;53.80
59977;DHT22;45837;51.076;3.578;2022-12-10T01:58:47;17.80;53.80
59977;DHT22;45837;51.076;3.578;2022-12-10T02:06:55;17.80;53.80
59977;DHT22;45837;51.076;3.578;2022-12-10T02:09:28;17.80;53.90
59977;DHT22;45837;51.076;3.578;2022-12-10T02:12:28;17.70;53.80
59977;DHT22;45837;51.076;3.578;2022-12-10T02:15:16;17.70;53.80
59977;DHT22;45837;51.076;3.578;2022-12-10T02:17:55;17.70;53.80
59977;DHT22;45837;51.076;3.578;2022-12-10T02:20:50;17.70;53.90
59977;DHT22;45837;51.076;3.578;2022-12-10T02:23:27;17.70;53.80
59977;DHT22;45837;51.076;3.578;2022-12-10T02:31:41;17.60;53.90
59977;DHT22;45837;51.076;3.578;2022-12-10T02:34:09;17.60;53.90
59977;DHT22;45837;51.076;3.578;2022-12-10T02:36:38;17.60;53.90
59977;DHT22;45837;51.076;3.578;2022-12-10T02:39:09;17.60;53.90
59977;DHT22;45837;51.076;3.578;2022-12-10T02:41:50;17.60;53.90
59977;DHT22;45837;51.076;3.578;2022-12-10T02:44:19;17.60;53.90
59977;DHT22;45837;51.076;3.578;2022-12-10T02:46:48;17.60;53.90
59977;DHT22;45837;51.076;3.578;2022-12-10T02:49:18;17.60;54.00
59977;DHT22;45837;51.076;3.578;2022-12-10T02:51:44;17.50;53.90
59977;DHT22;45837;51.076;3.578;2022-12-10T03:00:24;17.50;53.90
59977;DHT22;45837;51.076;3.578;2022-12-10T03:03:25;17.50;53.90
59977;DHT22;45837;51.076;3.578;2022-12-10T03:08:51;17.50;53.90
59977;DHT22;45837;51.076;3.578;2022-12-10T03:11:21;17.50;53.90
59977;DHT22;45837;51.076;3.578;2022-12-10T03:13:55;17.40;54.50
59977;DHT22;45837;51.076;3.578;2022-12-10T03:16:28;17.50;53.90
59977;DHT22;45837;51.076;3.578;2022-12-10T03:18:58;17.50;54.00
59977;DHT22;45837;51.076;3.578;2022-12-10T03:21:26;17.40;53.90
59977;DHT22;45837;51.076;3.578;2022-12-10T03:23:54;17.50;53.90
59977;DHT22;45837;51.076;3.578;2022-12-10T03:26:21;17.40;53.80
59977;DHT22;45837;51.076;3.578;2022-12-10T03:28:56;17.50;53.90
59977;DHT22;45837;51.076;3.578;2022-12-10T03:31:24;17.40;53.90
59977;DHT22;45837;51.076;3.578;2022-12-10T03:33:51;17.40;53.90
59977;DHT22;45837;51.076;3.578;2022-12-10T03:36:19;17.40;53.90
59977;DHT22;45837;51.076;3.578;2022-12-10T03:38:46;17.40;53.80
59977;DHT22;45837;51.076;3.578;2022-12-10T03:41:11;17.40;53.90
59977;DHT22;45837;51.076;3.578;2022-12-10T03:43:50;17.40;53.90
59977;DHT22;45837;51.076;3.578;2022-12-10T03:46:16;17.40;53.80
59977;DHT22;45837;51.076;3.578;2022-12-10T03:48:41;17.40;53.90
59977;DHT22;45837;51.076;3.578;2022-12-10T03:51:07;17.30;53.90
59977;DHT22;45837;51.076;3.578;2022-12-10T03:53:33;17.30;53.80
59977;DHT22;45837;51.076;3.578;2022-12-10T03:55:59;17.40;53.90
59977;DHT22;45837;51.076;3.578;2022-12-10T03:58:24;17.40;53.90
59977;DHT22;45837;51.076;3.578;2022-12-10T04:00:50;17.40;53.90
59977;DHT22;45837;51.076;3.578;2022-12-10T04:03:16;17.30;53.90
59977;DHT22;45837;51.076;3.578;2022-12-10T04:05:42;17.30;53.90
59977;DHT22;45837;51.076;3.578;2022-12-10T04:08:08;17.30;53.80
59977;DHT22;45837;51.076;3.578;2022-12-10T04:10:37;17.30;53.90
59977;DHT22;45837;51.076;3.578;2022-12-10T04:13:04;17.30;53.80
59977;DHT22;45837;51.076;3.578;2022-12-10T04:15:48;17.30;53.90
59977;DHT22;45837;51.076;3.578;2022-12-10T04:18:32;17.30;53.90
59977;DHT22;45837;51.076;3.578;2022-12-10T04:20:58;17.20;53.90
59977;DHT22;45837;51.076;3.578;2022-12-10T04:23:43;17.20;53.90
59977;DHT22;45837;51.076;3.578;2022-12-10T04:26:27;17.20;53.90
59977;DHT22;45837;51.076;3.578;2022-12-10T04:29:12;17.20;53.90
59977;DHT22;45837;51.076;3.578;2022-12-10T04:31:38;17.20;53.90
59977;DHT22;45837;51.076;3.578;2022-12-10T04:34:04;17.20;54.10
59977;DHT22;45837;51.076;3.578;2022-12-10T04:36:29;17.20;54.00
59977;DHT22;45837;51.076;3.578;2022-12-10T04:38:55;17.20;54.00
59977;DHT22;45837;51.076;3.578;2022-12-10T04:41:21;17.20;53.90
59977;DHT22;45837;51.076;3.578;2022-12-10T04:43:47;17.20;54.00
59977;DHT22;45837;51.076;3.578;2022-12-10T04:46:13;17.20;54.00
59977;DHT22;45837;51.076;3.578;2022-12-10T04:48:39;17.20;54.00
59977;DHT22;45837;51.076;3.578;2022-12-10T04:51:04;17.20;53.90
59977;DHT22;45837;51.076;3.578;2022-12-10T04:53:30;17.20;53.90
59977;DHT22;45837;51.076;3.578;2022-12-10T04:55:56;17.20;53.90
59977;DHT22;45837;51.076;3.578;2022-12-10T04:58:22;17.20;53.90
59977;DHT22;45837;51.076;3.578;2022-12-10T05:00:48;17.10;54.00
59977;DHT22;45837;51.076;3.578;2022-12-10T05:03:13;17.20;53.90
59977;DHT22;45837;51.076;3.578;2022-12-10T05:05:39;17.10;54.00
59977;DHT22;45837;51.076;3.578;2022-12-10T05:08:05;17.10;53.90
59977;DHT22;45837;51.076;3.578;2022-12-10T05:10:34;17.10;54.00
59977;DHT22;45837;51.076;3.578;2022-12-10T05:13:00;17.10;53.90
59977;DHT22;45837;51.076;3.578;2022-12-10T05:15:25;17.10;54.00
59977;DHT22;45837;51.076;3.578;2022-12-10T05:17:51;17.10;54.00
59977;DHT22;45837;51.076;3.578;2022-12-10T05:20:17;17.10;54.00
59977;DHT22;45837;51.076;3.578;2022-12-10T05:22:43;17.10;54.00
59977;DHT22;45837;51.076;3.578;2022-12-10T05:25:27;17.10;53.90
59977;DHT22;45837;51.076;3.578;2022-12-10T05:27:53;17.00;53.90
59977;DHT22;45837;51.076;3.578;2022-12-10T05:30:19;17.00;53.90
59977;DHT22;45837;51.076;3.578;2022-12-10T05:32:44;17.00;53.90
59977;DHT22;45837;51.076;3.578;2022-12-10T05:35:10;17.00;53.90
59977;DHT22;45837;51.076;3.578;2022-12-10T05:37:36;17.00;53.90
59977;DHT22;45837;51.076;3.578;2022-12-10T05:40:03;17.10;53.90
59977;DHT22;45837;51.076;3.578;2022-12-10T05:42:29;17.00;53.80
59977;DHT22;45837;51.076;3.578;2022-12-10T05:44:55;17.10;53.90
59977;DHT22;45837;51.076;3.578;2022-12-10T05:47:21;17.10;53.90
59977;DHT22;45837;51.076;3.578;2022-12-10T05:49:46;17.00;53.80
59977;DHT22;45837;51.076;3.578;2022-12-10T05:52:12;17.00;53.70
59977;DHT22;45837;51.076;3.578;2022-12-10T05:54:38;17.00;53.80
59977;DHT22;45837;51.076;3.578;2022-12-10T05:57:04;17.00;53.80
59977;DHT22;45837;51.076;3.578;2022-12-10T05:59:30;17.00;53.90
59977;DHT22;45837;51.076;3.578;2022-12-10T06:01:55;17.00;53.80
59977;DHT22;45837;51.076;3.578;2022-12-10T06:04:21;16.90;53.80
59977;DHT22;45837;51.076;3.578;2022-12-10T06:06:47;17.00;53.80
59977;DHT22;45837;51.076;3.578;2022-12-10T06:09:15;16.90;53.70
59977;DHT22;45837;51.076;3.578;2022-12-10T06:11:41;16.90;53.90
59977;DHT22;45837;51.076;3.578;2022-12-10T06:14:09;16.90;53.70
59977;DHT22;45837;51.076;3.578;2022-12-10T06:16:35;16.90;53.70
59977;DHT22;45837;51.076;3.578;2022-12-10T06:19:01;16.90;53.70
59977;DHT22;45837;51.076;3.578;2022-12-10T06:21:27;16.90;53.80
59977;DHT22;45837;51.076;3.578;2022-12-10T06:23:53;16.90;53.70
59977;DHT22;45837;51.076;3.578;2022-12-10T06:26:22;16.90;53.60
59977;DHT22;45837;51.076;3.578;2022-12-10T06:28:49;16.90;53.60
59977;DHT22;45837;51.076;3.578;2022-12-10T06:31:15;16.90;53.70
59977;DHT22;45837;51.076;3.578;2022-12-10T06:33:42;16.90;53.90
59977;DHT22;45837;51.076;3.578;2022-12-10T06:36:10;16.90;54.20
59977;DHT22;45837;51.076;3.578;2022-12-10T06:38:36;16.90;55.20
59977;DHT22;45837;51.076;3.578;2022-12-10T06:41:07;16.90;55.70
59977;DHT22;45837;51.076;3.578;2022-12-10T06:43:33;16.90;56.10
59977;DHT22;45837;51.076;3.578;2022-12-10T06:46:03;17.00;56.60
59977;DHT22;45837;51.076;3.578;2022-12-10T06:48:29;17.10;56.90
59977;DHT22;45837;51.076;3.578;2022-12-10T06:50:55;17.10;57.20
59977;DHT22;45837;51.076;3.578;2022-12-10T06:53:21;17.20;57.20
59977;DHT22;45837;51.076;3.578;2022-12-10T06:55:46;17.30;57.20
59977;DHT22;45837;51.076;3.578;2022-12-10T06:58:12;17.30;57.50
59977;DHT22;45837;51.076;3.578;2022-12-10T07:00:38;17.40;57.20
59977;DHT22;45837;51.076;3.578;2022-12-10T07:03:04;17.50;57.10
59977;DHT22;45837;51.076;3.578;2022-12-10T07:05:30;17.60;56.90
59977;DHT22;45837;51.076;3.578;2022-12-10T07:07:56;17.70;56.80
59977;DHT22;45837;51.076;3.578;2022-12-10T07:10:22;17.80;56.80
59977;DHT22;45837;51.076;3.578;2022-12-10T07:12:48;17.90;56.50
59977;DHT22;45837;51.076;3.578;2022-12-10T07:15:13;18.00;56.30
59977;DHT22;45837;51.076;3.578;2022-12-10T07:17:39;18.10;56.20
59977;DHT22;45837;51.076;3.578;2022-12-10T07:20:06;18.20;56.00
59977;DHT22;45837;51.076;3.578;2022-12-10T07:22:32;18.30;55.80
59977;DHT22;45837;51.076;3.578;2022-12-10T07:24:58;18.40;55.60
59977;DHT22;45837;51.076;3.578;2022-12-10T07:27:24;18.50;55.40
59977;DHT22;45837;51.076;3.578;2022-12-10T07:29:50;18.60;55.70
59977;DHT22;45837;51.076;3.578;2022-12-10T07:32:16;18.60;55.60
59977;DHT22;45837;51.076;3.578;2022-12-10T07:34:41;18.70;55.10
59977;DHT22;45837;51.076;3.578;2022-12-10T07:37:07;18.70;55.00
59977;DHT22;45837;51.076;3.578;2022-12-10T07:39:33;18.80;55.00
59977;DHT22;45837;51.076;3.578;2022-12-10T07:41:59;18.90;55.00
59977;DHT22;45837;51.076;3.578;2022-12-10T07:44:27;19.00;55.00
59977;DHT22;45837;51.076;3.578;2022-12-10T07:46:54;19.00;54.90
59977;DHT22;45837;51.076;3.578;2022-12-10T07:49:20;19.10;54.90
59977;DHT22;45837;51.076;3.578;2022-12-10T07:51:47;19.10;54.70
59977;DHT22;45837;51.076;3.578;2022-12-10T07:54:14;19.20;54.70
59977;DHT22;45837;51.076;3.578;2022-12-10T07:56:40;19.30;54.60
59977;DHT22;45837;51.076;3.578;2022-12-10T07:59:06;19.30;54.50
59977;DHT22;45837;51.076;3.578;2022-12-10T08:01:32;19.40;54.40
59977;DHT22;45837;51.076;3.578;2022-12-10T08:03:58;19.40;54.40
59977;DHT22;45837;51.076;3.578;2022-12-10T08:06:26;19.50;54.40
59977;DHT22;45837;51.076;3.578;2022-12-10T08:08:52;19.50;54.30
59977;DHT22;45837;51.076;3.578;2022-12-10T08:11:20;19.60;54.60
59977;DHT22;45837;51.076;3.578;2022-12-10T08:13:47;19.60;54.70
59977;DHT22;45837;51.076;3.578;2022-12-10T08:16:18;19.60;54.60
59977;DHT22;45837;51.076;3.578;2022-12-10T08:18:45;19.60;54.40
59977;DHT22;45837;51.076;3.578;2022-12-10T08:21:16;19.70;54.20
59977;DHT22;45837;51.076;3.578;2022-12-10T08:23:43;19.80;53.90
59977;DHT22;45837;51.076;3.578;2022-12-10T08:26:11;19.80;53.90
59977;DHT22;45837;51.076;3.578;2022-12-10T08:28:38;19.90;53.80
59977;DHT22;45837;51.076;3.578;2022-12-10T08:31:04;19.90;53.90
59977;DHT22;45837;51.076;3.578;2022-12-10T08:33:33;19.90;53.90
59977;DHT22;45837;51.076;3.578;2022-12-10T08:36:00;19.90;53.90
59977;DHT22;45837;51.076;3.578;2022-12-10T08:38:29;19.90;53.50
59977;DHT22;45837;51.076;3.578;2022-12-10T08:40:56;19.90;52.80
59977;DHT22;45837;51.076;3.578;2022-12-10T08:43:22;19.90;52.40
59977;DHT22;45837;51.076;3.578;2022-12-10T08:45:48;19.90;52.40
59977;DHT22;45837;51.076;3.578;2022-12-10T08:48:14;20.00;52.50
59977;DHT22;45837;51.076;3.578;2022-12-10T08:50:40;20.00;52.70
59977;DHT22;45837;51.076;3.578;2022-12-10T08:53:06;20.00;52.60
59977;DHT22;45837;51.076;3.578;2022-12-10T08:55:32;20.10;52.60
59977;DHT22;45837;51.076;3.578;2022-12-10T08:57:58;20.20;52.60
59977;DHT22;45837;51.076;3.578;2022-12-10T09:00:25;20.10;52.60
59977;DHT22;45837;51.076;3.578;2022-12-10T09:02:51;20.20;52.20
59977;DHT22;45837;51.076;3.578;2022-12-10T09:05:17;20.20;51.70
59977;DHT22;45837;51.076;3.578;2022-12-10T09:07:43;20.20;51.50
59977;DHT22;45837;51.076;3.578;2022-12-10T09:10:12;20.10;51.10
59977;DHT22;45837;51.076;3.578;2022-12-10T09:12:38;20.20;50.80
59977;DHT22;45837;51.076;3.578;2022-12-10T09:15:05;20.20;50.70
59977;DHT22;45837;51.076;3.578;2022-12-10T09:17:31;20.10;50.50
59977;DHT22;45837;51.076;3.578;2022-12-10T09:19:59;20.20;50.40
59977;DHT22;45837;51.076;3.578;2022-12-10T09:22:25;20.20;50.50
59977;DHT22;45837;51.076;3.578;2022-12-10T09:24:51;20.10;50.80
59977;DHT22;45837;51.076;3.578;2022-12-10T09:27:17;20.10;51.10
59977;DHT22;45837;51.076;3.578;2022-12-10T09:29:43;20.00;51.30
59977;DHT22;45837;51.076;3.578;2022-12-10T09:32:09;20.00;51.20
59977;DHT22;45837;51.076;3.578;2022-12-10T09:34:34;20.00;51.40
59977;DHT22;45837;51.076;3.578;2022-12-10T09:37:00;20.10;51.40
59977;DHT22;45837;51.076;3.578;2022-12-10T09:39:26;20.10;51.30
59977;DHT22;45837;51.076;3.578;2022-12-10T09:47:14;20.20;51.00
59977;DHT22;45837;51.076;3.578;2022-12-10T09:50:16;20.30;50.30
59977;DHT22;45837;51.076;3.578;2022-12-10T09:52:46;20.30;49.60
59977;DHT22;45837;51.076;3.578;2022-12-10T09:55:19;20.30;49.30
59977;DHT22;45837;51.076;3.578;2022-12-10T09:57:50;20.30;49.00
59977;DHT22;45837;51.076;3.578;2022-12-10T10:02:46;20.30;48.30
59977;DHT22;45837;51.076;3.578;2022-12-10T10:05:23;20.30;48.10
59977;DHT22;45837;51.076;3.578;2022-12-10T10:07:59;20.40;47.80
59977;DHT22;45837;51.076;3.578;2022-12-10T10:10:32;20.40;47.40
59977;DHT22;45837;51.076;3.578;2022-12-10T10:13:49;20.40;47.10
59977;DHT22;45837;51.076;3.578;2022-12-10T10:15:47;20.50;46.80
59977;DHT22;45837;51.076;3.578;2022-12-10T10:18:33;20.40;46.70
59977;DHT22;45837;51.076;3.578;2022-12-10T10:21:24;20.50;46.60
59977;DHT22;45837;51.076;3.578;2022-12-10T10:23:51;20.50;46.30
59977;DHT22;45837;51.076;3.578;2022-12-10T10:26:17;20.50;45.90
59977;DHT22;45837;51.076;3.578;2022-12-10T10:28:44;20.50;45.80
59977;DHT22;45837;51.076;3.578;2022-12-10T10:31:23;20.60;45.40
59977;DHT22;45837;51.076;3.578;2022-12-10T10:34:20;20.50;45.30
59977;DHT22;45837;51.076;3.578;2022-12-10T10:36:48;20.60;45.10
59977;DHT22;45837;51.076;3.578;2022-12-10T10:39:28;20.60;45.40
59977;DHT22;45837;51.076;3.578;2022-12-10T10:41:57;20.60;46.00
59977;DHT22;45837;51.076;3.578;2022-12-10T10:44:25;20.60;47.00
59977;DHT22;45837;51.076;3.578;2022-12-10T10:46:53;20.70;47.20
59977;DHT22;45837;51.076;3.578;2022-12-10T10:49:31;20.80;47.50
59977;DHT22;45837;51.076;3.578;2022-12-10T10:52:12;20.80;47.70
59977;DHT22;45837;51.076;3.578;2022-12-10T10:54:44;20.90;48.10
59977;DHT22;45837;51.076;3.578;2022-12-10T10:57:36;21.00;48.20
59977;DHT22;45837;51.076;3.578;2022-12-10T11:00:19;20.90;48.30
59977;DHT22;45837;51.076;3.578;2022-12-10T11:02:45;21.00;48.60
59977;DHT22;45837;51.076;3.578;2022-12-10T11:05:26;21.00;48.70
59977;DHT22;45837;51.076;3.578;2022-12-10T11:08:20;21.00;48.80
59977;DHT22;45837;51.076;3.578;2022-12-10T11:10:48;21.00;48.80
59977;DHT22;45837;51.076;3.578;2022-12-10T11:13:29;21.00;48.90
59977;DHT22;45837;51.076;3.578;2022-12-10T11:16:10;21.00;49.50
59977;DHT22;45837;51.076;3.578;2022-12-10T11:18:40;21.00;50.20
59977;DHT22;45837;51.076;3.578;2022-12-10T11:21:17;21.00;50.40
59977;DHT22;45837;51.076;3.578;2022-12-10T11:23:45;21.00;50.60
59977;DHT22;45837;51.076;3.578;2022-12-10T11:29:20;21.10;50.70
59977;DHT22;45837;51.076;3.578;2022-12-10T11:32:15;21.10;50.80
59977;DHT22;45837;51.076;3.578;2022-12-10T11:37:36;21.10;50.80
59977;DHT22;45837;51.076;3.578;2022-12-10T11:43:10;21.10;51.30
59977;DHT22;45837;51.076;3.578;2022-12-10T11:57:25;21.00;49.90
59977;DHT22;45837;51.076;3.578;2022-12-10T12:00:15;21.00;49.60
59977;DHT22;45837;51.076;3.578;2022-12-10T12:11:29;21.00;48.70
59977;DHT22;45837;51.076;3.578;2022-12-10T12:14:08;20.90;48.50
59977;DHT22;45837;51.076;3.578;2022-12-10T12:16:42;20.80;48.40
59977;DHT22;45837;51.076;3.578;2022-12-10T12:22:16;20.80;48.10
59977;DHT22;45837;51.076;3.578;2022-12-10T12:24:47;20.70;48.00
59977;DHT22;45837;51.076;3.578;2022-12-10T12:30:05;20.60;47.70
59977;DHT22;45837;51.076;3.578;2022-12-10T12:35:44;20.50;47.50
59977;DHT22;45837;51.076;3.578;2022-12-10T12:38:35;20.40;47.50
59977;DHT22;45837;51.076;3.578;2022-12-10T12:41:26;20.40;47.60
59977;DHT22;45837;51.076;3.578;2022-12-10T12:46:50;20.20;47.50
59977;DHT22;45837;51.076;3.578;2022-12-10T12:49:30;20.20;47.50
59977;DHT22;45837;51.076;3.578;2022-12-10T12:55:06;20.10;47.30
59977;DHT22;45837;51.076;3.578;2022-12-10T12:58:12;20.00;47.50
59977;DHT22;45837;51.076;3.578;2022-12-10T13:00:42;20.00;47.80
59977;DHT22;45837;51.076;3.578;2022-12-10T13:06:19;19.90;49.20
59977;DHT22;45837;51.076;3.578;2022-12-10T13:14:53;19.90;50.20
59977;DHT22;45837;51.076;3.578;2022-12-10T13:17:35;19.90;51.00
59977;DHT22;45837;51.076;3.578;2022-12-10T13:20:24;19.90;50.50
59977;DHT22;45837;51.076;3.578;2022-12-10T13:23:03;20.00;50.90
59977;DHT22;45837;51.076;3.578;2022-12-10T13:36:26;20.50;53.50
59977;DHT22;45837;51.076;3.578;2022-12-10T13:41:41;20.60;53.30
59977;DHT22;45837;51.076;3.578;2022-12-10T13:44:37;20.70;53.10
59977;DHT22;45837;51.076;3.578;2022-12-10T13:47:25;20.80;53.10
59977;DHT22;45837;51.076;3.578;2022-12-10T13:55:28;20.90;52.90
59977;DHT22;45837;51.076;3.578;2022-12-10T14:01:02;21.00;53.10
59977;DHT22;45837;51.076;3.578;2022-12-10T14:03:50;20.90;53.20
59977;DHT22;45837;51.076;3.578;2022-12-10T14:06:19;20.90;53.20
59977;DHT22;45837;51.076;3.578;2022-12-10T14:11:46;20.90;52.40
59977;DHT22;45837;51.076;3.578;2022-12-10T14:14:22;20.80;52.30
59977;DHT22;45837;51.076;3.578;2022-12-10T14:16:49;20.80;52.40
59977;DHT22;45837;51.076;3.578;2022-12-10T14:19:16;20.90;52.30
59977;DHT22;45837;51.076;3.578;2022-12-10T14:21:45;20.90;52.20
59977;DHT22;45837;51.076;3.578;2022-12-10T14:24:33;20.90;52.20
59977;DHT22;45837;51.076;3.578;2022-12-10T14:27:17;20.80;52.10
59977;DHT22;45837;51.076;3.578;2022-12-10T14:29:48;20.80;52.00
59977;DHT22;45837;51.076;3.578;2022-12-10T14:32:18;20.80;52.20
59977;DHT22;45837;51.076;3.578;2022-12-10T14:34:55;20.70;52.50
59977;DHT22;45837;51.076;3.578;2022-12-10T14:37:24;20.80;52.30
59977;DHT22;45837;51.076;3.578;2022-12-10T14:39:52;20.70;52.40
59977;DHT22;45837;51.076;3.578;2022-12-10T14:42:18;20.70;52.10
59977;DHT22;45837;51.076;3.578;2022-12-10T14:44:45;20.70;52.10
59977;DHT22;45837;51.076;3.578;2022-12-10T14:47:19;20.60;52.00
59977;DHT22;45837;51.076;3.578;2022-12-10T14:49:47;20.60;52.20
59977;DHT22;45837;51.076;3.578;2022-12-10T14:52:24;20.60;52.20
59977;DHT22;45837;51.076;3.578;2022-12-10T14:54:51;20.60;52.50
59977;DHT22;45837;51.076;3.578;2022-12-10T14:57:24;20.50;52.50
59977;DHT22;45837;51.076;3.578;2022-12-10T15:00:06;20.50;52.60
59977;DHT22;45837;51.076;3.578;2022-12-10T15:02:44;20.50;53.10
59977;DHT22;45837;51.076;3.578;2022-12-10T15:05:18;20.50;53.60
59977;DHT22;45837;51.076;3.578;2022-12-10T15:08:00;20.50;54.10
59977;DHT22;45837;51.076;3.578;2022-12-10T15:10:34;20.40;54.50
59977;DHT22;45837;51.076;3.578;2022-12-10T15:13:00;20.40;54.80
59977;DHT22;45837;51.076;3.578;2022-12-10T15:15:36;20.40;55.00
59977;DHT22;45837;51.076;3.578;2022-12-10T15:18:33;20.50;55.20
59977;DHT22;45837;51.076;3.578;2022-12-10T15:21:24;20.60;55.50
59977;DHT22;45837;51.076;3.578;2022-12-10T15:24:07;20.60;55.40
59977;DHT22;45837;51.076;3.578;2022-12-10T15:26:43;20.70;55.50
59977;DHT22;45837;51.076;3.578;2022-12-10T15:29:29;20.70;55.70
59977;DHT22;45837;51.076;3.578;2022-12-10T15:32:04;20.80;55.50
59977;DHT22;45837;51.076;3.578;2022-12-10T15:34:45;20.80;55.50
59977;DHT22;45837;51.076;3.578;2022-12-10T15:37:33;20.80;55.60
59977;DHT22;45837;51.076;3.578;2022-12-10T15:40:02;20.80;55.50
59977;DHT22;45837;51.076;3.578;2022-12-10T15:42:44;20.90;55.50
59977;DHT22;45837;51.076;3.578;2022-12-10T15:45:23;20.90;55.20
59977;DHT22;45837;51.076;3.578;2022-12-10T15:47:52;20.90;54.70
59977;DHT22;45837;51.076;3.578;2022-12-10T15:50:19;20.90;54.00
59977;DHT22;45837;51.076;3.578;2022-12-10T15:52:45;20.90;53.40
59977;DHT22;45837;51.076;3.578;2022-12-10T15:55:13;20.80;52.60
59977;DHT22;45837;51.076;3.578;2022-12-10T15:57:40;20.80;52.50
59977;DHT22;45837;51.076;3.578;2022-12-10T16:00:20;20.80;52.40
59977;DHT22;45837;51.076;3.578;2022-12-10T16:02:58;20.80;52.00
59977;DHT22;45837;51.076;3.578;2022-12-10T16:05:30;20.80;51.70
59977;DHT22;45837;51.076;3.578;2022-12-10T16:08:27;20.80;51.50
59977;DHT22;45837;51.076;3.578;2022-12-10T16:10:56;20.80;51.30
59977;DHT22;45837;51.076;3.578;2022-12-10T16:13:26;20.80;50.90
59977;DHT22;45837;51.076;3.578;2022-12-10T16:15:55;20.80;50.80
59977;DHT22;45837;51.076;3.578;2022-12-10T16:18:23;20.80;50.40
59977;DHT22;45837;51.076;3.578;2022-12-10T16:20:49;20.80;50.60
59977;DHT22;45837;51.076;3.578;2022-12-10T16:23:15;20.80;49.90
59977;DHT22;45837;51.076;3.578;2022-12-10T16:25:42;20.80;49.80
59977;DHT22;45837;51.076;3.578;2022-12-10T16:28:18;20.80;49.60
59977;DHT22;45837;51.076;3.578;2022-12-10T16:30:55;20.80;49.20
59977;DHT22;45837;51.076;3.578;2022-12-10T16:33:23;20.90;49.00
59977;DHT22;45837;51.076;3.578;2022-12-10T16:35:51;20.90;49.20
59977;DHT22;45837;51.076;3.578;2022-12-10T16:38:19;20.90;48.70
59977;DHT22;45837;51.076;3.578;2022-12-10T16:40:46;20.90;48.80
59977;DHT22;45837;51.076;3.578;2022-12-10T16:43:26;20.90;49.00
59977;DHT22;45837;51.076;3.578;2022-12-10T16:45:54;20.90;48.60
59977;DHT22;45837;51.076;3.578;2022-12-10T16:48:21;20.90;49.10
59977;DHT22;45837;51.076;3.578;2022-12-10T16:50:49;20.90;48.30
59977;DHT22;45837;51.076;3.578;2022-12-10T16:53:24;20.90;48.70
59977;DHT22;45837;51.076;3.578;2022-12-10T16:55:52;20.90;48.90
59977;DHT22;45837;51.076;3.578;2022-12-10T16:58:18;20.90;48.20
59977;DHT22;45837;51.076;3.578;2022-12-10T17:00:46;20.90;48.70
59977;DHT22;45837;51.076;3.578;2022-12-10T17:03:15;21.00;47.80
59977;DHT22;45837;51.076;3.578;2022-12-10T17:05:56;21.10;47.40
59977;DHT22;45837;51.076;3.578;2022-12-10T17:08:23;21.00;47.50
59977;DHT22;45837;51.076;3.578;2022-12-10T17:10:49;21.00;47.60
59977;DHT22;45837;51.076;3.578;2022-12-10T17:13:35;21.00;47.40
59977;DHT22;45837;51.076;3.578;2022-12-10T17:16:02;21.00;47.40
59977;DHT22;45837;51.076;3.578;2022-12-10T17:18:33;21.10;47.10
59977;DHT22;45837;51.076;3.578;2022-12-10T17:21:00;21.00;46.90
59977;DHT22;45837;51.076;3.578;2022-12-10T17:23:25;21.00;47.10
59977;DHT22;45837;51.076;3.578;2022-12-10T17:25:51;21.10;47.30
59977;DHT22;45837;51.076;3.578;2022-12-10T17:28:20;21.00;47.50
59977;DHT22;45837;51.076;3.578;2022-12-10T17:30:47;21.10;47.60
59977;DHT22;45837;51.076;3.578;2022-12-10T17:33:19;21.10;47.50
59977;DHT22;45837;51.076;3.578;2022-12-10T17:35:46;21.10;47.60
59977;DHT22;45837;51.076;3.578;2022-12-10T17:38:23;21.00;47.60
59977;DHT22;45837;51.076;3.578;2022-12-10T17:40:49;21.10;48.10